Time;durP1;ratioP1;P1;durP2;ratioP2;P2;SDS_P1;SDS_P2;PMS_P1;PMS_P2;Temp;Humidity;BMP_temperature;BMP_pressure;BME280_temperature;BME280_humidity;BME280_pressure;Samples;Min_cycle;Max_cycle;Signal;HPM_P1;HPM_P2
2022/12/25 00:00:19;;;;;;;2.85;2.65;;;16.80;73.90;;;;;;5065208;28;20131;-16
2022/12/25 00:02:45;;;;;;;3.03;2.80;;;16.70;73.80;;;;;;5064820;28;20045;-21
2022/12/25 00:05:10;;;;;;;2.72;2.53;;;16.80;73.70;;;;;;5062544;28;20166;-16
2022/12/25 00:07:36;;;;;;;2.78;2.58;;;16.80;73.90;;;;;;5064424;28;20044;-21
2022/12/25 00:10:02;;;;;;;2.55;2.35;;;16.70;74.00;;;;;;5064204;28;20048;-14
2022/12/25 00:12:27;;;;;;;2.88;2.67;;;16.70;74.00;;;;;;5065102;28;20387;-20
2022/12/25 00:14:53;;;;;;;2.95;2.65;;;16.70;74.10;;;;;;5060333;28;20087;-14
2022/12/25 00:17:18;;;;;;;2.20;2.00;;;16.70;74.10;;;;;;5063485;28;20040;-17
2022/12/25 00:19:44;;;;;;;3.05;2.53;;;16.70;74.20;;;;;;5061437;28;20044;-21
2022/12/25 00:22:09;;;;;;;2.65;2.45;;;16.70;74.10;;;;;;5063195;28;20425;-16
2022/12/25 00:24:35;;;;;;;2.08;1.98;;;16.60;74.30;;;;;;5061685;28;20040;-18
2022/12/25 00:27:01;;;;;;;2.20;2.10;;;16.60;74.40;;;;;;5061140;28;20040;-17
2022/12/25 00:29:26;;;;;;;2.85;2.65;;;16.60;74.40;;;;;;5064759;28;20493;-24
2022/12/25 00:31:52;;;;;;;2.90;2.38;;;16.60;74.40;;;;;;5064174;28;20174;-23
2022/12/25 00:34:18;;;;;;;2.25;2.15;;;16.60;74.40;;;;;;5059791;28;20113;-24
2022/12/25 00:36:43;;;;;;;2.25;2.05;;;16.60;74.40;;;;;;5059479;28;20090;-27
2022/12/25 00:39:09;;;;;;;2.25;1.95;;;16.60;74.30;;;;;;5060400;28;20116;-20
2022/12/25 00:44:19;;;;;;;;;;;16.60;74.30;;;;;;5047305;28;20047;-14
2022/12/25 00:46:45;;;;;;;2.80;2.60;;;16.50;74.50;;;;;;5044348;28;19916;-19
2022/12/25 00:49:12;;;;;;;2.38;2.28;;;16.50;74.40;;;;;;5044169;28;20064;-20
2022/12/25 00:51:39;;;;;;;2.92;2.45;;;16.50;74.60;;;;;;5042404;28;20513;-16
2022/12/25 00:54:04;;;;;;;2.80;2.60;;;16.50;74.50;;;;;;5044970;28;20091;-14
2022/12/25 00:56:30;;;;;;;3.05;2.03;;;16.50;74.60;;;;;;5045275;28;20087;-15
2022/12/25 00:58:55;;;;;;;2.20;2.05;;;16.50;74.60;;;;;;5043001;28;20132;-15
2022/12/25 01:01:21;;;;;;;3.08;2.72;;;16.50;74.70;;;;;;5017622;28;20053;-17
2022/12/25 01:03:47;;;;;;;2.30;2.10;;;16.50;74.50;;;;;;5034555;28;20033;-15
2022/12/25 01:06:13;;;;;;;1.80;1.70;;;16.40;74.60;;;;;;5039247;28;20520;-15
2022/12/25 01:10:21;;;;;;;2.30;2.20;;;16.40;74.70;;;;;;5041583;28;20060;-18
2022/12/25 01:11:28;;;;;;;2.38;2.22;;;16.50;74.80;;;;;;5043464;28;20048;-18
2022/12/25 01:13:53;;;;;;;2.28;1.77;;;16.50;74.70;;;;;;5047321;28;20421;-19
2022/12/25 01:16:19;;;;;;;2.00;1.90;;;16.40;74.70;;;;;;5042741;28;20095;-19
2022/12/25 01:18:45;;;;;;;2.00;1.80;;;16.40;74.80;;;;;;5043764;28;20196;-15
2022/12/25 01:21:15;;;;;;;2.00;1.90;;;16.40;74.90;;;;;;5039481;28;20569;-19
2022/12/25 01:23:40;;;;;;;2.03;1.92;;;16.40;74.80;;;;;;5046755;28;20044;-27
2022/12/25 01:26:07;;;;;;;1.83;1.73;;;16.40;74.90;;;;;;5041898;28;20044;-19
2022/12/25 01:28:33;;;;;;;2.03;1.38;;;16.40;74.90;;;;;;5046076;28;20498;-17
2022/12/25 01:30:58;;;;;;;1.83;1.73;;;16.50;74.90;;;;;;5039453;28;20051;-16
2022/12/25 01:33:24;;;;;;;1.80;1.70;;;16.40;74.90;;;;;;5043479;28;20055;-15
2022/12/25 01:35:49;;;;;;;1.77;1.67;;;16.40;75.00;;;;;;5045941;28;20110;-15
2022/12/25 01:38:15;;;;;;;1.70;1.60;;;16.40;75.00;;;;;;5040658;28;20063;-14
2022/12/25 01:40:41;;;;;;;1.70;1.60;;;16.40;75.10;;;;;;5046219;28;20155;-14
2022/12/25 01:43:27;;;;;;;1.73;1.63;;;16.40;75.10;;;;;;5055957;28;20063;-25
2022/12/25 01:45:53;;;;;;;1.80;1.70;;;16.40;75.20;;;;;;5065043;28;20045;-15
2022/12/25 01:48:27;;;;;;;1.60;1.50;;;16.40;75.30;;;;;;5062994;28;20049;-14
2022/12/25 01:50:55;;;;;;;1.85;1.60;;;16.40;75.50;;;;;;5051210;28;20066;-14
2022/12/25 01:53:21;;;;;;;1.75;1.65;;;16.40;75.30;;;;;;5075825;28;20037;-14
2022/12/25 01:55:47;;;;;;;2.05;1.95;;;16.40;75.30;;;;;;5047885;28;20045;-14
2022/12/25 01:58:13;;;;;;;1.70;1.60;;;16.30;75.30;;;;;;5079970;28;20044;-14
2022/12/25 02:00:39;;;;;;;1.90;1.80;;;16.30;75.40;;;;;;5063453;28;20528;-14
2022/12/25 02:03:05;;;;;;;1.48;1.38;;;16.30;75.30;;;;;;5058989;28;20485;-15
2022/12/25 02:05:32;;;;;;;1.67;1.58;;;16.30;75.30;;;;;;5064664;28;20055;-14
2022/12/25 02:08:00;;;;;;;1.90;1.80;;;16.30;75.30;;;;;;5059987;28;20045;-18
2022/12/25 02:10:25;;;;;;;1.70;1.60;;;16.30;75.40;;;;;;5062900;28;20414;-15
2022/12/25 02:12:51;;;;;;;1.77;1.67;;;16.30;75.40;;;;;;5062834;28;20043;-16
2022/12/25 02:15:18;;;;;;;1.70;1.60;;;16.30;75.30;;;;;;5063522;28;20077;-14
2022/12/25 02:18:23;;;;;;;1.65;1.55;;;16.30;75.40;;;;;;5061881;28;20089;-13
2022/12/25 02:21:11;;;;;;;1.50;1.40;;;16.30;75.40;;;;;;4960946;28;20051;-16
2022/12/25 02:23:58;;;;;;;1.52;1.42;;;16.30;75.50;;;;;;4958573;28;20391;-18
2022/12/25 02:26:57;;;;;;;1.70;1.60;;;16.30;75.50;;;;;;4957107;28;20043;-16
2022/12/25 02:29:28;;;;;;;1.30;1.30;;;16.30;75.40;;;;;;4946082;28;20075;-18
2022/12/25 02:32:09;;;;;;;1.58;1.52;;;16.30;75.40;;;;;;4964659;28;20128;-17
2022/12/25 02:34:36;;;;;;;1.40;1.30;;;16.30;75.40;;;;;;4934598;28;20097;-15
2022/12/25 02:37:31;;;;;;;1.60;1.50;;;16.30;75.50;;;;;;4949830;28;20054;-21
2022/12/25 02:40:05;;;;;;;1.10;1.10;;;16.30;75.50;;;;;;4964081;28;20050;-16
2022/12/25 03:08:14;;;;;;;2.75;1.20;;;16.20;75.70;;;;;;4966744;28;20080;-15
2022/12/25 03:13:29;;;;;;;1.45;1.35;;;16.20;75.70;;;;;;4999399;28;20600;-17
2022/12/25 03:18:39;;;;;;;1.33;1.23;;;16.20;75.80;;;;;;4989790;28;20087;-15
2022/12/25 03:26:53;;;;;;;;;;;16.20;75.70;;;;;;4994892;28;20041;-15
2022/12/25 03:26:56;;;;;;;0.80;0.80;;;16.20;75.80;;;;;;4990499;28;20399;-16
2022/12/25 03:32:18;;;;;;;0.80;0.80;;;16.10;75.60;;;;;;5072622;28;20043;-14
2022/12/25 03:35:22;;;;;;;;;;;16.10;75.50;;;;;;5075898;28;20126;-15
2022/12/25 04:36:37;;;;;;;0.70;0.70;;;16.00;75.50;;;;;;5071836;28;20097;-15
2022/12/25 04:39:02;;;;;;;0.70;0.70;;;16.00;75.50;;;;;;5076097;28;20575;-14
2022/12/25 04:41:28;;;;;;;0.77;0.77;;;16.10;75.40;;;;;;5070617;28;20044;-14
2022/12/25 04:43:53;;;;;;;0.77;0.77;;;16.10;75.30;;;;;;5046763;28;20132;-15
2022/12/25 04:46:19;;;;;;;0.75;0.75;;;16.10;75.30;;;;;;5044741;28;20040;-15
2022/12/25 04:48:45;;;;;;;0.52;0.52;;;16.10;75.40;;;;;;5050051;28;20048;-16
2022/12/25 04:51:14;;;;;;;0.60;0.60;;;16.00;75.40;;;;;;5045265;28;20415;-14
2022/12/25 04:53:40;;;;;;;0.70;0.70;;;16.00;75.50;;;;;;5045955;28;20102;-16
2022/12/25 04:56:06;;;;;;;0.50;0.50;;;16.00;75.40;;;;;;5041993;28;20033;-16
2022/12/25 04:58:31;;;;;;;0.80;0.80;;;16.00;75.50;;;;;;5045355;28;20049;-15
2022/12/25 05:01:02;;;;;;;0.70;0.70;;;16.00;75.40;;;;;;5045560;28;20116;-19
2022/12/25 05:03:28;;;;;;;0.40;0.40;;;16.00;75.30;;;;;;5046284;28;20081;-18
2022/12/25 05:05:53;;;;;;;0.70;0.70;;;16.00;75.40;;;;;;5041310;28;20045;-14
2022/12/25 05:08:19;;;;;;;0.70;0.70;;;16.10;75.20;;;;;;5046178;28;20453;-14
2022/12/25 05:10:44;;;;;;;0.63;0.63;;;16.00;75.00;;;;;;5046916;28;20498;-15
2022/12/25 05:13:10;;;;;;;0.70;0.70;;;16.10;75.00;;;;;;5040542;28;20049;-19
2022/12/25 05:15:38;;;;;;;0.60;0.60;;;16.10;75.00;;;;;;5043761;28;20059;-19
2022/12/25 05:18:04;;;;;;;0.68;0.68;;;16.20;74.80;;;;;;5055939;28;20086;-15
2022/12/25 05:20:30;;;;;;;0.65;0.65;;;16.20;74.80;;;;;;5036389;28;20037;-15
2022/12/25 05:22:55;;;;;;;0.60;0.60;;;16.10;74.80;;;;;;5037600;28;20192;-15
2022/12/25 05:25:21;;;;;;;0.55;0.55;;;16.20;74.20;;;;;;5045465;28;20086;-19
2022/12/25 05:27:46;;;;;;;0.70;0.70;;;16.30;74.30;;;;;;5044573;28;20512;-19
2022/12/25 05:30:12;;;;;;;0.52;0.52;;;16.20;74.30;;;;;;5044516;28;20045;-16
2022/12/25 05:32:38;;;;;;;0.55;0.55;;;16.20;74.40;;;;;;5042889;28;20383;-15
2022/12/25 05:35:04;;;;;;;0.70;0.70;;;16.20;74.50;;;;;;5045125;28;20092;-15
2022/12/25 05:37:29;;;;;;;0.70;0.70;;;16.10;74.60;;;;;;5041772;28;20045;-16
2022/12/25 05:39:55;;;;;;;0.70;0.70;;;16.20;74.40;;;;;;5044513;28;20112;-15
2022/12/25 05:42:21;;;;;;;0.50;0.50;;;16.20;74.40;;;;;;5044206;28;20661;-15
2022/12/25 05:44:46;;;;;;;1.00;0.70;;;16.30;74.10;;;;;;5065319;28;20048;-15
2022/12/25 05:47:12;;;;;;;0.50;0.50;;;16.20;74.40;;;;;;5063894;28;20048;-16
2022/12/25 05:49:38;;;;;;;0.52;0.52;;;16.30;74.10;;;;;;5064485;28;20052;-15
2022/12/25 05:52:03;;;;;;;0.50;0.50;;;16.30;74.00;;;;;;5063830;28;20040;-14
2022/12/25 05:54:29;;;;;;;0.50;0.50;;;16.20;74.10;;;;;;5064933;28;20033;-23
2022/12/25 05:56:54;;;;;;;0.60;0.60;;;16.20;74.40;;;;;;5061676;28;20041;-15
2022/12/25 05:59:20;;;;;;;0.40;0.40;;;16.20;74.30;;;;;;5062702;28;20489;-15
2022/12/25 06:01:45;;;;;;;0.70;0.70;;;16.20;74.40;;;;;;5061140;28;20048;-22
2022/12/25 06:04:11;;;;;;;0.60;0.60;;;16.20;74.30;;;;;;5063186;28;20089;-15
2022/12/25 06:06:36;;;;;;;0.50;0.50;;;16.20;75.00;;;;;;5065217;28;20564;-20
2022/12/25 06:09:02;;;;;;;0.60;0.60;;;16.20;74.10;;;;;;5069190;28;20048;-15
2022/12/25 06:11:28;;;;;;;0.55;0.55;;;16.10;74.40;;;;;;5067715;28;20142;-22
2022/12/25 06:13:53;;;;;;;0.43;0.43;;;16.10;74.40;;;;;;5067346;28;20041;-21
2022/12/25 06:16:19;;;;;;;0.50;0.50;;;16.10;74.60;;;;;;5068895;28;20043;-15
2022/12/25 06:18:47;;;;;;;0.50;0.50;;;16.10;74.80;;;;;;5067510;28;20075;-15
2022/12/25 06:21:13;;;;;;;0.45;0.45;;;16.00;74.90;;;;;;5070008;28;20135;-16
2022/12/25 06:23:38;;;;;;;0.55;0.55;;;16.10;74.80;;;;;;5067786;28;20044;-15
2022/12/25 06:26:09;;;;;;;0.55;0.40;;;16.00;74.80;;;;;;5062844;28;20525;-15
2022/12/25 06:28:34;;;;;;;0.50;0.50;;;16.00;74.90;;;;;;5064986;28;20535;-15
2022/12/25 06:31:12;;;;;;;0.60;0.60;;;16.00;75.00;;;;;;5070067;28;20052;-20
2022/12/25 06:33:38;;;;;;;0.45;0.40;;;16.00;74.80;;;;;;5067910;28;20144;-15
2022/12/25 06:36:08;;;;;;;0.50;0.50;;;16.00;75.10;;;;;;5069548;28;20120;-18
2022/12/25 06:38:34;;;;;;;0.55;0.55;;;15.90;75.10;;;;;;5064753;28;20060;-15
2022/12/25 06:41:07;;;;;;;1.48;0.43;;;16.00;75.00;;;;;;5066588;28;20075;-17
2022/12/25 06:43:32;;;;;;;0.52;0.52;;;16.00;75.10;;;;;;5073128;28;20071;-24
2022/12/25 06:46:02;;;;;;;0.60;0.50;;;16.00;75.10;;;;;;5065310;28;20697;-15
2022/12/25 06:48:28;;;;;;;0.40;0.40;;;16.00;75.20;;;;;;5069962;28;20067;-15
2022/12/25 06:50:53;;;;;;;0.55;0.55;;;16.00;75.40;;;;;;5069002;28;20086;-15
2022/12/25 06:53:19;;;;;;;0.50;0.50;;;16.20;75.00;;;;;;5070902;28;20047;-16
2022/12/25 06:55:44;;;;;;;0.60;0.60;;;16.20;74.80;;;;;;5077393;28;20074;-15
2022/12/25 06:58:10;;;;;;;0.77;0.43;;;16.20;75.10;;;;;;5074103;28;20052;-15
2022/12/25 07:00:35;;;;;;;0.32;0.32;;;16.10;75.30;;;;;;5072135;28;20036;-15
2022/12/25 07:03:01;;;;;;;0.40;0.40;;;16.10;75.00;;;;;;5067925;28;20024;-18
2022/12/25 07:05:26;;;;;;;0.40;0.40;;;16.10;75.10;;;;;;5071017;28;20025;-17
2022/12/25 07:07:52;;;;;;;0.55;0.43;;;16.10;74.90;;;;;;5070242;28;20037;-20
2022/12/25 07:10:17;;;;;;;0.32;0.32;;;16.10;75.00;;;;;;5070949;28;20073;-21
2022/12/25 07:12:43;;;;;;;0.25;0.25;;;16.10;75.00;;;;;;4364874;28;10000873;-21
2022/12/25 07:15:09;;;;;;;0.38;0.38;;;16.10;75.00;;;;;;5069138;28;20040;-19
2022/12/25 07:17:34;;;;;;;0.30;0.30;;;16.10;75.10;;;;;;5068014;28;20056;-15
2022/12/25 07:20:00;;;;;;;0.30;0.28;;;16.00;75.50;;;;;;5061806;28;20046;-17
2022/12/25 07:22:27;;;;;;;0.43;0.43;;;16.10;75.70;;;;;;5068755;28;20502;-15
2022/12/25 07:24:53;;;;;;;0.60;0.60;;;16.10;75.30;;;;;;5068136;28;20040;-26
2022/12/25 07:27:19;;;;;;;1.02;0.65;;;16.10;75.10;;;;;;5072110;28;20426;-16
2022/12/25 07:29:44;;;;;;;0.43;0.43;;;16.10;75.20;;;;;;5069079;28;20056;-16
2022/12/25 07:32:10;;;;;;;0.55;0.52;;;16.00;75.30;;;;;;5070786;28;20464;-19
2022/12/25 07:34:35;;;;;;;0.32;0.32;;;16.10;75.20;;;;;;5068652;28;20136;-24
2022/12/25 07:37:01;;;;;;;0.40;0.40;;;16.10;75.30;;;;;;5063983;28;20497;-30
2022/12/25 07:39:27;;;;;;;0.30;0.30;;;16.10;75.70;;;;;;5068662;28;20049;-22
2022/12/25 07:41:52;;;;;;;0.40;0.40;;;16.10;75.40;;;;;;5067097;28;20048;-26
2022/12/25 07:44:18;;;;;;;1.52;0.40;;;16.10;75.30;;;;;;5068102;28;20774;-32
2022/12/25 07:46:44;;;;;;;0.60;0.40;;;16.10;75.00;;;;;;5071811;28;20044;-29
2022/12/25 07:49:10;;;;;;;0.50;0.50;;;16.20;74.80;;;;;;5065365;28;20521;-30
2022/12/25 07:51:36;;;;;;;0.50;0.40;;;16.20;75.10;;;;;;5063173;28;20044;-30
2022/12/25 07:54:01;;;;;;;0.40;0.40;;;16.10;75.20;;;;;;5066215;28;20083;-24
2022/12/25 07:56:27;;;;;;;0.50;0.40;;;16.10;75.20;;;;;;5068581;28;20044;-34
2022/12/25 07:58:53;;;;;;;0.40;0.40;;;16.10;75.20;;;;;;5066120;28;20043;-18
2022/12/25 08:01:20;;;;;;;0.50;0.50;;;16.10;75.20;;;;;;5064538;28;20519;-38
2022/12/25 08:03:49;;;;;;;0.38;0.38;;;16.20;75.00;;;;;;5066879;28;20059;-29
2022/12/25 08:06:15;;;;;;;0.20;0.20;;;16.20;75.50;;;;;;5032653;28;20055;-30
2022/12/25 08:08:41;;;;;;;0.57;0.40;;;16.10;75.10;;;;;;5067418;28;20056;-27
2022/12/25 08:11:07;;;;;;;0.40;0.30;;;16.10;75.20;;;;;;5063074;28;20463;-27
2022/12/25 08:13:33;;;;;;;0.47;0.30;;;16.10;75.20;;;;;;5063837;28;20101;-30
2022/12/25 08:15:59;;;;;;;0.90;0.50;;;16.10;75.20;;;;;;5068328;28;20056;-16
2022/12/25 08:18:25;;;;;;;0.50;0.50;;;16.20;74.90;;;;;;5050705;28;20429;-17
2022/12/25 08:20:50;;;;;;;0.73;0.40;;;16.20;74.90;;;;;;5067567;28;20573;-31
2022/12/25 08:23:16;;;;;;;0.60;0.60;;;16.10;74.80;;;;;;5070658;28;20047;-27
2022/12/25 08:25:42;;;;;;;0.30;0.30;;;16.10;75.00;;;;;;5064966;28;20068;-15
2022/12/25 08:28:07;;;;;;;0.30;0.28;;;16.10;75.00;;;;;;5059597;28;20147;-24
2022/12/25 08:30:33;;;;;;;3.40;0.40;;;16.10;75.10;;;;;;5062588;28;20036;-33
2022/12/25 08:32:59;;;;;;;0.30;0.25;;;16.20;74.80;;;;;;5056914;28;20526;-26
2022/12/25 08:35:25;;;;;;;1.52;0.28;;;16.10;74.90;;;;;;5062376;28;20055;-15
2022/12/25 08:37:50;;;;;;;0.45;0.30;;;16.10;75.00;;;;;;5063954;28;20051;-22
2022/12/25 08:40:16;;;;;;;0.22;0.22;;;16.10;75.10;;;;;;5062256;28;20044;-15
2022/12/25 08:42:42;;;;;;;0.40;0.40;;;16.10;75.10;;;;;;5065169;28;20036;-21
2022/12/25 08:45:08;;;;;;;0.40;0.40;;;16.10;75.10;;;;;;5074925;28;20074;-27
2022/12/25 08:47:34;;;;;;;0.38;0.35;;;16.20;75.10;;;;;;5070765;28;20048;-26
2022/12/25 08:49:59;;;;;;;3.03;0.75;;;16.10;74.90;;;;;;5071175;28;20047;-33
2022/12/25 08:52:26;;;;;;;48.85;26.30;;;16.20;75.00;;;;;;5066576;28;20051;-26
2022/12/25 08:54:52;;;;;;;88.47;43.75;;;16.30;74.40;;;;;;5049264;28;20508;-17
2022/12/25 08:57:17;;;;;;;76.65;39.13;;;16.30;74.20;;;;;;5036072;28;20040;-18
2022/12/25 08:59:43;;;;;;;67.78;36.38;;;16.30;74.80;;;;;;5047558;28;20052;-23
2022/12/25 09:02:10;;;;;;;63.78;33.78;;;16.30;75.00;;;;;;5055337;28;20040;-20
2022/12/25 09:04:35;;;;;;;65.60;34.30;;;16.30;74.80;;;;;;5040934;28;20045;-16
2022/12/25 09:07:01;;;;;;;57.63;29.40;;;16.30;74.60;;;;;;5051912;28;20118;-17
2022/12/25 09:09:27;;;;;;;47.55;24.33;;;16.40;74.50;;;;;;5059041;28;20044;-23
2022/12/25 09:11:52;;;;;;;43.17;23.67;;;16.50;74.30;;;;;;5071269;28;20054;-17
2022/12/25 09:14:18;;;;;;;47.33;25.95;;;16.50;74.00;;;;;;5067371;28;20028;-33
2022/12/25 09:16:44;;;;;;;44.15;24.17;;;16.50;73.90;;;;;;5065848;28;20044;-20
2022/12/25 09:19:09;;;;;;;45.45;24.85;;;16.80;73.20;;;;;;5069362;28;20170;-24
2022/12/25 09:21:37;;;;;;;45.10;25.00;;;16.80;73.20;;;;;;5065071;28;20041;-23
2022/12/25 09:24:03;;;;;;;42.92;24.15;;;16.80;73.00;;;;;;5059094;28;20037;-17
2022/12/25 09:26:29;;;;;;;41.03;23.75;;;16.90;72.90;;;;;;5050327;28;20063;-25
2022/12/25 09:28:55;;;;;;;40.25;23.23;;;16.80;73.10;;;;;;5056661;28;20413;-44
2022/12/25 09:31:21;;;;;;;42.65;24.33;;;16.90;73.70;;;;;;5057560;28;20058;-25
2022/12/25 09:33:46;;;;;;;32.55;18.73;;;16.90;73.30;;;;;;5048529;28;20048;-27
2022/12/25 09:36:12;;;;;;;30.73;16.50;;;16.90;75.70;;;;;;5040587;28;20060;-35
2022/12/25 09:38:38;;;;;;;27.20;17.00;;;16.90;74.10;;;;;;5051174;28;20884;-29
2022/12/25 09:41:15;;;;;;;22.38;14.10;;;17.00;74.00;;;;;;5052823;28;20048;-28
2022/12/25 09:43:45;;;;;;;21.52;13.45;;;17.10;74.70;;;;;;5049669;28;20598;-22
2022/12/25 09:46:14;;;;;;;21.35;13.57;;;17.20;74.40;;;;;;4670378;28;10000436;-22
2022/12/25 09:48:40;;;;;;;25.73;15.55;;;17.20;73.80;;;;;;5019829;28;20159;-28
2022/12/25 09:51:08;;;;;;;25.02;15.75;;;17.20;73.80;;;;;;5041955;28;20052;-23
2022/12/25 09:53:48;;;;;;;26.45;15.75;;;17.10;74.90;;;;;;5028288;28;20615;-25
2022/12/25 09:56:27;;;;;;;27.35;16.10;;;17.10;73.90;;;;;;5047507;28;20051;-21
2022/12/25 09:58:53;;;;;;;24.08;14.80;;;17.10;74.30;;;;;;5026718;28;20771;-22
2022/12/25 10:01:38;;;;;;;27.55;15.15;;;17.20;74.30;;;;;;5040589;28;20365;-21
2022/12/25 10:04:17;;;;;;;25.27;15.10;;;17.30;73.60;;;;;;5011255;28;20075;-21
2022/12/25 10:06:51;;;;;;;26.27;15.32;;;17.10;74.10;;;;;;5042724;28;20524;-22
2022/12/25 10:09:32;;;;;;;;;;;17.20;73.90;;;;;;5044264;28;20148;-22
2022/12/25 10:12:25;;;;;;;24.77;13.75;;;17.20;74.00;;;;;;5043820;28;19918;-21
2022/12/25 10:15:03;;;;;;;23.02;14.90;;;17.30;74.30;;;;;;5041359;28;20127;-22
2022/12/25 10:18:07;;;;;;;24.10;15.40;;;17.20;73.80;;;;;;5047747;28;20106;-21
2022/12/25 10:20:36;;;;;;;23.67;14.73;;;17.20;74.50;;;;;;5018590;28;20079;-21
2022/12/25 10:23:03;;;;;;;24.00;14.38;;;17.20;74.40;;;;;;5048337;28;20048;-21
2022/12/25 10:25:29;;;;;;;25.50;14.93;;;17.30;74.00;;;;;;5031113;28;20049;-21
2022/12/25 10:28:10;;;;;;;23.38;14.10;;;17.30;73.50;;;;;;5052186;28;20810;-21
2022/12/25 10:30:35;;;;;;;22.90;13.63;;;17.40;73.40;;;;;;5034275;28;20044;-24
2022/12/25 10:33:01;;;;;;;23.30;13.75;;;17.40;74.30;;;;;;5032198;28;20659;-27
2022/12/25 10:35:27;;;;;;;21.23;13.48;;;17.40;73.20;;;;;;5049672;28;20728;-21
2022/12/25 10:38:01;;;;;;;22.42;13.95;;;17.40;73.30;;;;;;5033452;28;20712;-30
2022/12/25 10:40:27;;;;;;;21.10;12.98;;;17.50;72.90;;;;;;5033896;28;20052;-20
2022/12/25 10:43:00;;;;;;;19.42;12.43;;;17.50;73.00;;;;;;5049882;28;20513;-24
2022/12/25 10:45:25;;;;;;;17.13;12.20;;;17.60;72.50;;;;;;5009296;28;20481;-21
2022/12/25 10:48:01;;;;;;;22.95;14.73;;;17.60;72.60;;;;;;5043410;28;20048;-26
2022/12/25 10:50:27;;;;;;;19.65;13.25;;;17.70;72.30;;;;;;5029484;28;20132;-21
2022/12/25 10:52:55;;;;;;;21.08;13.02;;;17.60;72.30;;;;;;5044040;28;20409;-22
2022/12/25 10:55:21;;;;;;;20.63;12.32;;;17.80;72.00;;;;;;5041253;28;20272;-21
2022/12/25 10:57:47;;;;;;;19.27;12.23;;;17.90;71.40;;;;;;5046937;28;20048;-23
2022/12/25 11:00:21;;;;;;;23.15;11.93;;;17.90;71.10;;;;;;4691654;28;10000024;-22
2022/12/25 11:02:46;;;;;;;18.40;10.88;;;17.70;71.50;;;;;;5040742;28;20114;-26
2022/12/25 11:05:13;;;;;;;16.58;10.75;;;17.70;71.80;;;;;;5034300;28;20052;-21
2022/12/25 11:07:50;;;;;;;17.10;11.32;;;17.70;72.10;;;;;;5022615;28;20056;-21
2022/12/25 11:10:15;;;;;;;16.88;10.98;;;17.70;71.60;;;;;;5024681;28;20056;-24
2022/12/25 11:12:41;;;;;;;16.38;10.48;;;17.60;71.90;;;;;;5039486;28;20053;-22
2022/12/25 11:15:30;;;;;;;16.67;10.93;;;17.60;71.90;;;;;;5019908;28;20187;-22
2022/12/25 11:17:56;;;;;;;15.05;10.40;;;17.70;71.40;;;;;;5038067;28;20052;-22
2022/12/25 11:20:21;;;;;;;16.42;10.75;;;17.80;71.60;;;;;;5040470;28;20044;-21
2022/12/25 11:22:48;;;;;;;15.38;9.85;;;17.60;71.70;;;;;;5036896;28;20052;-21
2022/12/25 11:25:16;;;;;;;12.55;9.57;;;17.60;72.60;;;;;;5048742;28;20048;-21
2022/12/25 11:27:42;;;;;;;16.55;10.10;;;17.60;71.90;;;;;;5059577;28;20036;-23
2022/12/25 11:30:09;;;;;;;13.23;9.27;;;17.70;71.50;;;;;;5069832;28;20058;-22
2022/12/25 11:32:43;;;;;;;13.85;10.00;;;17.60;71.80;;;;;;5053633;28;20047;-21
2022/12/25 11:35:16;;;;;;;12.02;8.07;;;17.60;71.90;;;;;;5048618;28;20188;-21
2022/12/25 11:37:43;;;;;;;13.20;8.98;;;17.80;71.30;;;;;;5060333;28;20048;-22
2022/12/25 11:40:23;;;;;;;12.65;9.20;;;17.80;71.40;;;;;;5045575;28;20097;-21
2022/12/25 11:43:09;;;;;;;14.80;9.52;;;17.80;71.00;;;;;;5056086;28;20059;-21
2022/12/25 11:45:39;;;;;;;12.13;8.80;;;17.90;70.90;;;;;;5066970;28;20055;-22
2022/12/25 11:48:15;;;;;;;10.32;7.80;;;17.80;71.30;;;;;;5073784;28;20044;-21
2022/12/25 11:50:55;;;;;;;9.93;7.47;;;17.70;72.00;;;;;;5066296;28;20452;-22
2022/12/25 11:53:30;;;;;;;13.23;8.88;;;17.60;71.90;;;;;;5045322;28;20043;-21
2022/12/25 11:56:00;;;;;;;10.13;7.68;;;17.70;72.00;;;;;;5046451;28;20053;-20
2022/12/25 11:58:28;;;;;;;10.73;7.80;;;17.80;71.70;;;;;;5057584;28;20083;-22
2022/12/25 12:00:55;;;;;;;11.10;7.72;;;17.80;71.90;;;;;;5060809;28;20044;-23
2022/12/25 12:03:29;;;;;;;12.60;8.65;;;17.80;71.70;;;;;;5058119;28;20048;-23
2022/12/25 12:05:56;;;;;;;10.10;7.43;;;17.60;72.00;;;;;;5059057;28;20044;-23
2022/12/25 12:08:21;;;;;;;10.73;7.88;;;17.70;72.20;;;;;;5056880;28;20073;-23
2022/12/25 12:11:16;;;;;;;12.82;8.90;;;17.70;72.00;;;;;;5069968;28;20048;-23
2022/12/25 12:13:54;;;;;;;12.05;8.27;;;17.70;72.20;;;;;;5064734;28;20392;-21
2022/12/25 12:16:19;;;;;;;8.85;7.28;;;17.70;72.30;;;;;;5068432;28;20040;-28
2022/12/25 12:18:45;;;;;;;9.93;7.35;;;17.70;72.30;;;;;;5058458;28;20043;-21
2022/12/25 12:21:16;;;;;;;10.73;7.90;;;17.60;72.30;;;;;;5067843;28;20045;-20
2022/12/25 12:23:58;;;;;;;10.07;8.00;;;17.70;72.30;;;;;;5069249;28;20041;-20
2022/12/25 12:26:29;;;;;;;12.20;7.65;;;17.70;72.30;;;;;;5061372;28;20160;-19
2022/12/25 12:28:56;;;;;;;8.05;7.18;;;17.60;72.50;;;;;;5058754;28;20048;-21
2022/12/25 12:31:22;;;;;;;8.77;7.07;;;17.70;72.50;;;;;;5071577;28;20048;-20
2022/12/25 12:33:55;;;;;;;9.35;7.45;;;17.70;73.20;;;;;;5063461;28;20093;-25
2022/12/25 12:36:21;;;;;;;9.43;7.63;;;17.70;72.50;;;;;;5068210;28;20409;-20
2022/12/25 12:38:47;;;;;;;9.13;7.00;;;17.90;71.90;;;;;;5079384;28;20048;-25
2022/12/25 12:41:13;;;;;;;8.40;7.38;;;17.90;72.10;;;;;;5059840;28;20374;-21
2022/12/25 12:43:43;;;;;;;10.13;7.00;;;17.90;72.00;;;;;;5048747;28;20039;-19
2022/12/25 12:46:18;;;;;;;7.00;6.38;;;17.80;72.30;;;;;;5039125;28;20055;-20
2022/12/25 12:48:45;;;;;;;7.03;6.32;;;17.90;72.00;;;;;;5023461;28;20049;-18
2022/12/25 12:51:13;;;;;;;8.02;7.05;;;17.80;72.40;;;;;;5044473;28;20139;-21
2022/12/25 12:53:40;;;;;;;7.57;6.68;;;17.80;72.40;;;;;;5045157;28;20056;-21
2022/12/25 12:56:18;;;;;;;7.70;6.57;;;17.70;72.70;;;;;;5040952;28;20135;-26
2022/12/25 12:58:49;;;;;;;7.13;6.43;;;17.70;72.70;;;;;;5027644;28;20040;-19
2022/12/25 13:01:22;;;;;;;6.65;6.03;;;17.80;72.60;;;;;;5015888;28;20132;-19
2022/12/25 13:04:18;;;;;;;6.28;5.68;;;17.80;72.80;;;;;;5044627;28;20053;-20
2022/12/25 13:06:51;;;;;;;9.25;6.18;;;17.90;72.50;;;;;;5024920;28;20061;-18
2022/12/25 13:09:26;;;;;;;8.98;6.15;;;17.80;72.50;;;;;;5028860;28;20059;-18
2022/12/25 13:11:51;;;;;;;7.05;5.70;;;18.00;72.50;;;;;;5039696;28;20506;-19
2022/12/25 13:14:21;;;;;;;5.97;5.38;;;18.20;71.70;;;;;;5025190;28;20103;-18
2022/12/25 13:16:48;;;;;;;6.75;6.05;;;18.30;71.00;;;;;;5040752;28;20894;-20
2022/12/25 13:19:15;;;;;;;7.03;5.50;;;18.50;70.50;;;;;;5040472;28;20509;-18
2022/12/25 13:21:49;;;;;;;7.10;5.82;;;18.40;70.70;;;;;;5039340;28;20045;-18
2022/12/25 13:24:21;;;;;;;5.57;5.13;;;18.30;70.80;;;;;;5024606;28;20049;-22
2022/12/25 13:26:46;;;;;;;5.85;5.35;;;18.50;70.40;;;;;;5032709;28;20132;-24
2022/12/25 13:29:35;;;;;;;5.28;4.68;;;18.50;70.40;;;;;;5033988;28;20660;-20
2022/12/25 13:32:02;;;;;;;5.70;5.10;;;18.50;70.50;;;;;;5034715;28;20048;-20
2022/12/25 13:34:29;;;;;;;5.25;4.85;;;18.50;70.50;;;;;;5043414;28;20060;-21
2022/12/25 13:36:55;;;;;;;5.03;4.53;;;18.60;70.10;;;;;;5033077;28;20044;-21
2022/12/25 13:39:22;;;;;;;4.75;4.35;;;18.70;69.60;;;;;;5010264;28;20049;-21
2022/12/25 13:42:04;;;;;;;5.18;4.68;;;18.60;70.20;;;;;;5030564;28;20048;-21
2022/12/25 13:44:38;;;;;;;5.03;4.63;;;18.50;70.40;;;;;;5032198;28;20076;-20
2022/12/25 13:47:20;;;;;;;4.90;4.50;;;18.50;70.60;;;;;;5021665;28;20041;-22
2022/12/25 13:49:46;;;;;;;5.15;4.75;;;18.50;70.40;;;;;;5045238;28;20069;-19
2022/12/25 13:52:32;;;;;;;6.00;4.47;;;18.50;70.40;;;;;;5020574;28;20459;-19
2022/12/25 13:55:01;;;;;;;4.80;4.40;;;18.60;70.40;;;;;;5028987;28;20044;-18
2022/12/25 13:57:33;;;;;;;7.05;4.00;;;18.50;70.20;;;;;;5033345;28;20360;-19
2022/12/25 13:59:59;;;;;;;4.35;3.95;;;18.60;70.00;;;;;;5050468;28;20064;-20
2022/12/25 14:02:29;;;;;;;4.28;3.97;;;18.70;69.80;;;;;;5027121;28;20519;-18
2022/12/25 14:04:54;;;;;;;4.47;4.07;;;18.60;69.90;;;;;;5023899;28;20032;-19
2022/12/25 14:07:24;;;;;;;4.25;3.95;;;18.60;70.10;;;;;;5049861;28;20051;-20
2022/12/25 14:09:56;;;;;;;4.28;3.88;;;18.50;70.30;;;;;;5031582;28;20053;-19
2022/12/25 14:12:22;;;;;;;4.05;3.72;;;18.60;70.30;;;;;;5032199;28;20055;-19
2022/12/25 14:14:48;;;;;;;4.10;3.80;;;18.60;70.20;;;;;;5024994;28;20037;-19
2022/12/25 14:17:13;;;;;;;4.60;4.20;;;18.60;70.30;;;;;;5020152;28;20075;-21
2022/12/25 14:19:39;;;;;;;3.80;3.42;;;18.60;70.00;;;;;;5047939;28;20414;-18
2022/12/25 14:22:09;;;;;;;3.95;3.65;;;18.60;70.20;;;;;;5040676;28;20099;-20
2022/12/25 14:24:35;;;;;;;3.47;2.92;;;18.80;69.50;;;;;;5036681;28;20920;-18
2022/12/25 14:27:02;;;;;;;4.05;3.65;;;18.70;69.80;;;;;;5019953;28;20053;-19
2022/12/25 14:29:39;;;;;;;3.10;2.90;;;18.70;69.80;;;;;;5037474;28;20049;-18